Race Results for
Rockhopper Classic
Vacaville, CA
(Event Information)
View By:
Cross Country on 05/07/2011

Note: Ranking points are NOT upgrade points. An explanation of ranking points can be found here.


Men - Cat 1/2/3 - Clydesdale

 Place Points NameCity, StateTime USAC #BibTeam
1Derald Sue   02:11:17:960  421 
2Robert Raubach   02:23:40:720  422 
3Edward Cruz   02:23:54:220  424 Xtreme Outfitters
4Adrian Contreras   02:29:28:240  426 
5Jeffrey Moore   02:30:44:490  423 Ray's Cycle
6581.67Patrick Dyer   Davis, CA02:42:50:750 10319  420 Mike's Velo City -velocitybicycles.com
7590.00Robert Braddock   Sacramento, CA02:49:18:520 111606  425 thebikebiz.com
DNFJeremy Spurbeck   01:49:53:670  427 SBRC

Men - Cat 1/2/3 - Single Speed

 Place Points NameCity, StateTime USAC #BibTeam
1Joshua Hughes   Sacramento, CA02:52:35:000 123925  408 Victory Velo
2Ryan Fowler   Oakland, CA02:53:13:750 114450  406 
3Fritz Wisor   Geneva, NY03:10:12:420 81066  403 Breakaway Bikes
4Ryan Robinson   03:11:30:030  405 Folsom Breakouts
5Kevin Denison   El Dorado Hills, CA03:26:18:790 303642  404 Team Mad Cat
6Chris Shirar   03:30:14:790  400 Monticello
7Cody Pratt   Visalia, CA03:36:24:310 285588  401 Sierra Bicycle Werks/Cannondale
8Joe Carpenter   San Jose, CA03:42:45:310 301276  402 Team Mad Cat
DNFBob Drowne   02:06:02:920  407 Monticello

Men - Cat 1/2/3 - Junior - 15-18

 Place Points NameCity, StateTime USAC #BibTeam
1409.66Max Houtzager   Ross, CA01:33:15:360 286995  440 Whole Athlete-Specialized
2499.83Sean Bennett   El Cerrito, CA01:45:08:410 347932  101 ECHS Racing
3590.00Aleck Crofoot   El Dorado Hills, CA01:50:08:870 334374  447 Oak Ridge Trojans

Men - Cat 3 - Senior - 19-29

 Place Points NameCity, StateTime USAC #BibTeam
1540.00Kevin Herron   Folsom, CA01:01:36:580 347570  301 The Hub
2Sergio Sanchez   01:01:41:080  300 Grass Roots Racing Velo Wrench Bike Shop
3Mark Juner   01:10:43:100  302 
4Karl Ono   01:29:53:630  303 Team Get Shreddy

Men - Cat 3 - Master - 30-39

 Place Points NameCity, StateTime USAC #BibTeam
1Peter Harney   01:03:22:680  320 Team Sharp Bicycles
2Hector Pareja   01:04:57:330  324 Opi Commercial Builders
3Daniel Lawson   01:07:17:850  325 
4Adam Weiss   01:08:47:600  323 
5Nathan Temple   01:08:57:850  351 
6Damon Ropoulos   01:25:47:360  321 
7Jason Dwyer   01:29:39:380  322 
8Pete Perlegos   02:00:19:910  327 
9Jason Pappas   02:00:21:410  326 

Men - Cat 3 - Master - 40-49

 Place Points NameCity, StateTime USAC #BibTeam
1David Tripier   01:00:40:830  343 CoreTechs
2543.85Ken Montgomery   San Mateo, CA01:03:36:080 333348  345 
3Rigoletto Pasibe   01:08:03:250  348 
4Dennis Wolf   01:08:54:600  354 
5Fernando Ontiveros   01:11:27:100  349 
6559.23Steven Woo   Los Altos, CA01:11:33:350 38840  340 Third Pillar
7Rudy Castaniada   01:11:38:850  352 
8Abito Ilustrisimo   01:13:21:850  346 Tropa
9Dana Massey   01:15:30:600  347 
10Jon Brockway   01:17:30:110  353 
11578.46Darrel James   Modesto, CA01:21:32:110 225665  344 Fun Sport Bikes Cycling Team
12Henry Fernandis   01:23:21:860  350 
13586.15Daniel Sullivan   Vacaville, CA01:36:51:390 342354  342 Grass Roots Racing
14Tim Shestak   01:41:21:640  341 

Men - Cat 3 - Master - 50-99

 Place Points NameCity, StateTime USAC #BibTeam
1540.00Brian McEvilly   Vacaville, CA01:10:37:600 195782  362 Precision Strong Rail
2Jim Smith   01:15:44:850  361 
3Michael Waldear   01:16:11:350  365 
4Mark Helton   01:24:34:110  366 
5Fred Gardiner   01:27:25:110  364 R.A.T.S.
6Jerry Brickey   01:28:25:110  363 
7590.00James Frahm   Livermore, CA01:52:11:410 300666  360 Maciel Velo

Men - Cat 2/3 - Junior - 15-18

 Place Points NameCity, StateTime USAC #BibTeam
1Ross Harrington   01:00:13:060  445 San Marin High School
2Jordan Rosenbach   01:03:04:060  442 
3554.29Grant Snyder   El Dorado Hills, CA01:10:28:620 335988  490 Trojans Composite
4561.43Shane Allen   Mill Valley, CA01:10:55:330 343324  448 Tam Bikes
5568.57Kyle Denison (1 - Cat3)   El Dorado Hills, CA01:13:24:080 303671  446 Team Mad Cat
6Peter Saathoff   01:14:18:080  444 Novato High
7Alec Seivert   01:24:06:590  449 
8Chase Williams   01:26:24:840  443 Novato High

Men - Cat 2 - Senior - 19-29

 Place Points NameCity, StateTime USAC #BibTeam
1540.00Corey Bray   San Francisco, CA01:53:32:020 348518  106 
2Ryan Price   01:57:19:270  114 
3Nathan Powell   01:59:11:770  113 Victory Velo Bike Shop
4556.67thomas hammond   Santa Rosa, CA02:01:50:020 290911  109 
5562.22benjamin orven zamora   San Jose, CA02:03:21:770 301592  102 Team Tropa
6567.78Brett Maur   El Dorado Hills, CA02:05:01:040 335626  104 Trojans
7Kurtis Westbrook   02:05:43:040  112 Team Get Shreddy
8Will Lewis   02:07:37:290  111 
9Jasper Riis   02:14:33:790  107 
10Tyson Tate   02:36:27:330  110 
DNFGary Nagle   Reno, NV01:20:16:380 302983  103 Nevada Cycling

Men - Cat 2 - Master - 30-39

 Place Points NameCity, StateTime USAC #BibTeam
1Doug Baker   01:49:04:750  127 Willow Glen Bikes
2531.79Dustin White   San Francisco, CA01:54:13:820 253687  121 Sheila Moon
3535.67Ryan Stroup   San Jose, CA01:54:28:270 101309  126 Epicenter Bikes Aptos
4539.55Paul Marshall   San Jose, CA01:57:30:770 349232  123 
5543.43Josh Moberg   San Bruno, CA01:58:20:270 317988  131 Slow Old Guys Who Get Their Butts Kicked
6547.31Josh Walker   Oakland, CA02:04:22:520 36997  122 
7Frank Sisneros   02:05:39:890  120 Monticello
8Andrew Yee   02:08:59:290  129 HUP United
9Scott Mitterer   02:10:54:290  128 
10Ryan Gibson   02:12:55:790  125 
11Martin Koran   02:15:57:050  137 SBRC
12Brian Denina   02:17:08:800  130 MyTropa.com
13Benjamin Moomey   02:18:22:550  124 
14578.36Matthew Boser   Berkeley, CA02:21:44:050 327202  134 Cal Cycling
15Matthew Bush   02:27:18:320  135 
16586.12Mike Schowalter   San Francisco, CA02:31:13:940 286914  132 USF Law Cyclists Anonymous
17Isaac Facundo   02:49:06:850  136 Team Response
DNFDan Wesp   01:14:17:210  133 Monticello

Men - Cat 2 - Master - 40-49

 Place Points NameCity, StateTime USAC #BibTeam
1Mike Pugh   01:50:29:290  159 Davis Bike Club Race Team
2Brad Stompe   01:52:05:750  152 LVMBC
3534.37Rann Valdez   Pleasant Hill, CA01:55:01:270 142965  161 Precision Stone Racing
4537.46Pat Beckley   Corning, CA01:55:00:520 250242  140 Visenka
5Dave George   02:01:00:710  145 Kinetic Cycles
6543.64William Waggoner   Sacramento, CA02:01:47:770 196269  148 Davis Bike Club Race Team
7Adam Mcaboy   02:02:07:270  149 Novato
8Christopher Munoz   02:02:24:770  144 Bikes 4 Life
9Derek Rose   02:02:33:020  142 
10Eric Olson   02:02:44:770  156 Summit Bikes
11559.10Rick Ferdinandsen   Fresno, CA02:03:48:520 304441  158 Stevens Bicycle Racing
12Dustin Slack   02:05:49:290  155 Team Debshred
13Steve Rothenberg   02:06:34:290  143 Clean Coat Painting
14568.37Shawn Miller   Davis, CA02:06:33:040 24477  157 Davis Bike Club
15James Donohoe   02:08:22:540  151 
16Eric Lowe   02:10:33:040  153 HUP United
17Justin Madison   02:13:42:300  164 Stone Persion Racing
18David Collins   02:14:51:790  150 
19Jidi Wong   02:17:04:300  165 
20Al Painter   02:26:49:570  154 INTEGRATE Performance Fitness
21Denis Vian   02:28:16:820  163 
DNFAlan Walls   Antelope, CA01:19:42:470 110156  146 Davis Bike Club
DNFBrian Sisneros   02:05:32:040  160 

Men - Cat 2 - Master - 50-99

 Place Points NameCity, StateTime USAC #BibTeam
1Billy Fontaine   01:54:53:520  185 El Sob Pedaler
2492.93Ken Shiokari   Pacifica, CA02:00:56:770 228280  171 Price Point
3John Grubbs   02:03:10:770  175 Kinetic Cycles
4503.71Thomas Smith   Oakdale, CA02:06:00:790 79205  177 
5509.11Bruce Parr   Gold River, CA02:06:11:790 160271  178 
6514.50Paul Falvey   Grass Valley, CA02:07:36:290 11212  184 X-O
7Chris Pickett   02:08:58:040  188 
8Luke DiMichele   02:09:32:790  186 Monticello
9Albert Fox   02:13:40:790  174 Monticello
10John Miller   02:17:02:550  183 
11541.46Mike Sinyard   Morgan Hill, CA02:18:44:050 206323  182 
12Phil Fisher   02:19:03:050  189 Whiskey Boys Racing
13552.25Gary Young   Pacifica, CA02:20:06:800 350300  180 Team Integrate
14557.64Brian Birch   Oakland, CA02:20:14:050 159719  172 Team Mad Cat
15Randy Batsell   02:21:41:050  173 Bikes For Life
16568.43John Seivert   Grass Valley, CA02:24:34:570 212792  187 SERT/Sho-Air
17Bernard Demai   02:29:59:320  181 
18579.21William Dunkum   Cool, CA02:37:23:580 157140  179 Team Mad Cat
19584.61Rob Wassmer   Sacramento, CA02:42:34:830 349444  176 Kinetic Cycle
20Tony Breslin   02:47:17:600  190 Trojans High School MTB
DNFRich Henthorn   01:14:04:960  170 Team Wrong Way

Men - Cat 1 - Senior - 19-29

 Place Points NameCity, StateTime USAC #BibTeam
1540.00David Miller   Woodland, CA02:39:51:230 306798  21 Delta Velo
2565.00Mat Gordon   San Francisco, CA02:44:07:480 191313  22 Fusion Sport USA
3590.00Matt Slafkosky   Port Costa, CA03:07:57:030 139415  20 
DNFAnthony Santamaria   Davis, CA01:17:16:610 199152  24 
DNFReid Lionakis   El Dorado Hills, CA01:55:43:900 317768  23 Kinetic Cycles

Men - Cat 1 - Master - 30-39

 Place Points NameCity, StateTime USAC #BibTeam
1540.00Gregory Anderson   Vacaville, CA02:31:06:720 90802  36 Morgan Stanley/Specialized
2Gabriel Forsythe   02:42:23:980  31 Scotts Valley Cycle Sports
3573.33Ron Shevock   Folsom, CA02:47:30:480 294396  32 Team Mad Cat
4590.00Andrew Damiano   North Highlands, CA03:18:16:290 76433  30 
DNFMark Valentino   El Dorado Hills, CA01:04:50:840 112974  35 Folsom Bike
DNFDylan McReynolds   Berkeley, CA01:57:32:670 23832  34 Berkeley Bike Club

Men - Cat 1 - Master - 40-49

 Place Points NameCity, StateTime USAC #BibTeam
1388.18Dario Fredrick   San Anselmo, CA02:22:28:450 12329  41 Whole Athlete - Specialized
2404.34Stanislaus (Stosh) Bankston   Olympic Valley, CA02:33:22:220 2494  45 Bicycle Emporium
3420.50John Hunt   Fairfax, CA02:37:18:980 17154  40 Cal Giant
4436.66Greg Fales   Orangevale, CA02:43:10:730 275788  48 Team Bicycles Plus/Sierra Nevada
5452.82Leif Rohrbach   Concord, CA02:47:54:480 296786  46 Team Diablo
6468.98Den Satake   Mill Valley, CA02:50:56:250 56630  47 Tam Bikes
7485.14Robert Raymond   Hayward, CA02:57:35:500 200414  42 InfoVista
8501.30Kurstin Graham   Reno, NV03:34:12:060 129537  43 Reno Wheelman
9517.46Chris DuBurg   Los Gatos, CA03:34:43:810 232893  49 Honey Badger
DNFAllen Hill   Reno, NV02:13:06:940 16168  44 Bicycle Bananas

Men - Cat 1 - Master - 50-99

 Place Points NameCity, StateTime USAC #BibTeam
1509.38William Sans   San Mateo, CA02:46:28:730 48284  57 GBI/Kinetic Cycles
2525.50Craig Lindberg   Nevada City, CA02:55:35:500 83707  55 SERT/SHO-AIR
3541.63William Buckingham   Ross, CA02:58:57:010 127538  50 Above Category
4557.75Rob Stark   Elkgrove, CA03:05:06:760 287188  53 Team Mad Cat
5573.88Randy Floyd   Newcastle, CA03:08:51:030 90079  54 Body Concepts
6590.00Marty Cunningham   Sacrament Ca03:24:05:290 8359  51 Fred Lewis Construction
DNFTom Strause   Elk Grove, CA01:37:03:140 321390  52 Kinetic Cycles
DNFWayne Stranton   00:56:58:840  56 Sierra Express Racing Team

Men - Pro

 Place Points NameCity, StateTime USAC #BibTeam
1396.61Brent Prenzlow   Carlsbad, CA02:23:26:700 28646  Celo Pacific/B&L
2418.40Michael Hosey   Cotati, CA02:24:06:450 195352  Marin
3440.19Clinton Claassen   El Dorado Hills, CA02:26:22:950 278360  10 Team Mad Cat
4461.98Robert Anderson   Mill Valley, CA02:32:55:470 1688  Team Specialized Racing Masters
5483.77Tsering Alleyne   Novato, CA02:34:59:220 196474  11 Morih Bikes
6505.56Daniel McNaughton   Martinez, CA02:37:42:980 110305  Content Works/Uncom Machine
7Gabe Cheese   02:50:16:000  12 Team Clinco
DNFRon Castia   Livermore, CA01:47:42:650 144264  InfoVista Cycling Team
DNFRobert Dillion   Santa Rosa, CA00:56:33:090 218573  Jamis Factory Team

Women - Cat 1/2/3 - Junior - 15-18

 Place Points NameCity, StateTime USAC #BibTeam
1Sofia Hamilton   San Anselmo, CA02:02:05:440 298034  66 Whole Athlete - Specialized
2Josie Nordrum   Corte Madera, CA02:04:49:940 320882  452 Whole Athlete- Specialized

Women - Cat 3 - Senior

 Place Points NameCity, StateTime USAC #BibTeam
1Daniela Dwyer   01:32:40:610  371 
2Emily Breslin   01:32:41:610  373 Team Oakland Cycling
3Christina Lee   01:33:58:030  372 
4Karla Barragan   02:14:30:420  370 

Women - Cat 3 - Master - 40-99

 Place Points NameCity, StateTime USAC #BibTeam
1Jessica Tanihana   Roseville, CA01:40:20:370 338150  380 TimeYourRace.com

Women - Cat 2/3 - Junior - 10-18

 Place Points NameCity, StateTime USAC #BibTeam
1540.00Avery Morin   Roseville, CA01:13:14:580 266914  451 Team Mad Cat
2Tatiana Sisneros   01:50:24:620  450 Monticello
3590.00Molly McGhee (1 - Cat3)   Roseville, CA01:52:54:140 338138  453 TimeYourRace.com

Women - Cat 2 - Senior

 Place Points NameCity, StateTime USAC #BibTeam
1540.00Leslie Creed   Dixon, CA02:17:53:720 158064  201 Velo Wrench
2Jen Shevock   02:24:16:970  200 Folsom Bike
3Anna Baker   02:40:27:500  203 
4Stephanie Miller   03:05:32:550  202 

Women - Cat 2 - Master - 40-99

 Place Points NameCity, StateTime USAC #BibTeam
1Becky Brain   Pleasant Hill, CA02:32:51:990 85634  211 Taleo Racing
DNFShari Raymond   Hayward, CA01:18:31:890 200415  210 InfoVista
DNFSharel Hutchison   Sacramento, CA01:56:11:350 349956  212 Davis Bike Club

Women - Cat 1

 Place Points NameCity, StateTime USAC #BibTeam
1471.10Carrie Edwards   Sausalito, CA03:02:31:160 99021  60 Sheila Moon/Big Swing
2485.96Erin Alders   Nevada City, CA03:09:54:550 196090  64 Sierra Express
3500.82Tara Walhart   San Francisco, CA03:10:00:050 133103  61 Team Campmor
4515.69Kelly Chang   Oakland, CA03:14:02:550 405  65 SyCip
5530.55Carol Boland   Capitola, CA03:28:41:060 233406  70 Stevens
6545.41Sian Turner   Truckee, CA03:31:23:100 306583  67 
7560.27Asa Salas   Folsom, CA03:34:04:830 115370  69 Team Mad Cat
8575.14Katherine Pollard   Los Angles, CA03:48:34:890 256535  62 Team Mad Cat
9Elizabeth Peres   04:00:30:860  68 Team Mad Cat
DNFKimberley Alvarez   Gold River, CA01:18:45:880 308632  63 Team Mad Cat

Women - Pro

 Place Points NameCity, StateTime USAC #BibTeam
1Sarah Maile   Sacramento, CA02:55:56:520 163025  Ventana MTB

Report missing or incorrect license numbers

Volkswagen
SpyCUOREBonk BreakerUSACDFSierra NevadaShimano
UCI USA Cycling is the official governing body for all disciplines of competitive cycling in the United States. The 501c3, membership-based organization aims both to achieve sustained success in international cycling competition and to grow competitive cycling in America while delivering an exceptional customer experience.
View Children's Online Privacy Protection Policy
US Olympic Committee